»·PEaware :: N5GL KOAK-05U

N5GL :: KOAK-05U

FLIGHT INFORMATION

Flight Status: Arrived
Operator: Privately registered:
United States
More flights under this callsign
Pilot: Georg L. (13308)
Aircraft: SOCATA TBM-900
(TBM9)
More flights by this aircraft type
Origin: KOAK Metro Oakland Intl
United States
Destination: 05U Eureka
United States
More flights between these airports :: More routes between these airports
Route: +LIN J84 MVA ASTNN
File this flight plan on PilotEdge
Remarks:
Altitude:
(Current/Filed)
31,000ft
Speed:
(Current/Filed)
312kts
Departed: 20-Sep-20 07:38 AM
Arrived: 20-Sep-20 08:59 AM
Distance/Time
Traveled:
312nm/1:21
Distance/Time
To Go:
Arrived

Flight Plot

Page will automatically refresh every two minutes.

Flight plan parsing failed; only flown route is shown


Map Options




Map Legend


Flown Route
Filed Route
Departure Airport
Arrival Airport
Navaid (VOR, NDB)
Fix

Horizontal Profiles

Position Reports

Time Latitude Longitude Heading Altitude Ground
Speed
20-Sep-20 07:03 37.733822 -122.215318 0 10ft 0kts
20-Sep-20 07:03 37.733822 -122.215318 196 10ft 0kts
20-Sep-20 07:05 37.733822 -122.215318 196 10ft 0kts
20-Sep-20 07:06 37.733822 -122.215318 196 10ft 0kts
20-Sep-20 07:06 37.733822 -122.215318 196 10ft 0kts
20-Sep-20 07:08 37.733822 -122.215318 196 10ft 0kts
20-Sep-20 07:08 37.733822 -122.215318 196 10ft 0kts
20-Sep-20 07:09 37.733444 -122.215606 216 10ft 2kts
20-Sep-20 07:10 37.733146 -122.215842 157 10ft 0kts
20-Sep-20 07:11 37.733147 -122.215842 157 10ft 0kts
20-Sep-20 07:12 37.733147 -122.215842 157 10ft 0kts
20-Sep-20 07:13 37.733147 -122.215842 157 10ft 0kts
20-Sep-20 07:14 37.733147 -122.215842 157 10ft 0kts
20-Sep-20 07:15 37.733147 -122.215842 157 10ft 0kts
20-Sep-20 07:16 37.733147 -122.215842 157 10ft 0kts
20-Sep-20 07:17 37.733147 -122.215842 157 10ft 0kts
20-Sep-20 07:18 37.733147 -122.215842 157 10ft 0kts
20-Sep-20 07:19 37.733146 -122.215842 157 10ft 0kts
20-Sep-20 07:20 37.733146 -122.215842 157 10ft 0kts
20-Sep-20 07:21 37.733146 -122.215842 157 10ft 0kts
20-Sep-20 07:22 37.733146 -122.215842 157 10ft 0kts
20-Sep-20 07:23 37.733146 -122.215842 157 10ft 0kts
20-Sep-20 07:24 37.733146 -122.215842 157 10ft 0kts
20-Sep-20 07:25 37.733146 -122.215842 157 10ft 0kts
20-Sep-20 07:26 37.733146 -122.215842 157 10ft 0kts
20-Sep-20 07:27 37.733146 -122.215842 157 10ft 0kts
20-Sep-20 07:28 37.733146 -122.215842 157 10ft 0kts
20-Sep-20 07:29 37.733146 -122.215842 157 10ft 0kts
20-Sep-20 07:30 37.732551 -122.216076 229 10ft 7kts
20-Sep-20 07:31 37.731473 -122.216110 174 10ft 12kts
20-Sep-20 07:32 37.728099 -122.211974 114 10ft 19kts
20-Sep-20 07:33 37.725791 -122.204997 115 10ft 18kts
20-Sep-20 07:34 37.725518 -122.204635 183 10ft 0kts
20-Sep-20 07:35 37.725517 -122.204635 183 10ft 0kts
20-Sep-20 07:36 37.725517 -122.204635 183 10ft 0kts
20-Sep-20 07:37 37.730298 -122.221078 295 418ft 114kts
20-Sep-20 07:38 37.755878 -122.253015 328 2295ft 147kts
20-Sep-20 07:39 37.793998 -122.285945 328 3903ft 176kts
20-Sep-20 07:40 37.839102 -122.316488 13 5758ft 181kts
20-Sep-20 07:41 37.846808 -122.257113 87 7409ft 195kts
20-Sep-20 07:42 37.855263 -122.188930 76 9024ft 201kts
20-Sep-20 07:43 37.868194 -122.118853 75 10597ft 209kts
20-Sep-20 07:44 37.882107 -122.045445 75 12151ft 219kts
20-Sep-20 07:45 37.896455 -121.969557 75 13727ft 225kts
20-Sep-20 07:46 37.911208 -121.891338 74 15298ft 232kts
20-Sep-20 07:47 37.926259 -121.811206 74 16813ft 237kts
20-Sep-20 07:48 37.941744 -121.728490 74 18299ft 244kts
20-Sep-20 07:49 37.957491 -121.644003 74 19782ft 250kts
20-Sep-20 07:50 37.973704 -121.556607 74 21240ft 258kts
20-Sep-20 07:51 37.990231 -121.467118 74 22697ft 264kts
20-Sep-20 07:52 38.007089 -121.375338 74 23985ft 272kts
20-Sep-20 07:53 38.024376 -121.280924 75 25361ft 277kts
20-Sep-20 07:54 38.041932 -121.184481 75 26656ft 283kts
20-Sep-20 07:55 38.061451 -121.085023 73 27511ft 299kts
20-Sep-20 07:56 38.084577 -120.979093 72 27974ft 313kts
20-Sep-20 07:57 38.104666 -120.872504 77 28962ft 309kts
20-Sep-20 07:58 38.121794 -120.765492 77 29958ft 308kts
20-Sep-20 07:59 38.138844 -120.658214 77 30919ft 305kts
20-Sep-20 08:00 38.156235 -120.548068 77 31028ft 329kts
20-Sep-20 08:01 38.175476 -120.431722 76 31024ft 340kts
20-Sep-20 08:02 38.195953 -120.313383 77 31017ft 344kts
20-Sep-20 08:03 38.216441 -120.194222 77 31038ft 345kts
20-Sep-20 08:04 38.236676 -120.075774 77 31140ft 340kts
20-Sep-20 08:05 38.256622 -119.958297 77 31228ft 339kts
20-Sep-20 08:06 38.276463 -119.840650 77 31229ft 341kts
20-Sep-20 08:07 38.296283 -119.722378 77 31229ft 342kts
20-Sep-20 08:08 38.315971 -119.604112 77 31225ft 342kts
20-Sep-20 08:09 38.335672 -119.484989 77 31219ft 343kts
20-Sep-20 08:10 38.355263 -119.365737 77 31207ft 344kts
20-Sep-20 08:11 38.374853 -119.245686 78 31190ft 345kts
20-Sep-20 08:12 38.394250 -119.126000 78 31191ft 345kts
20-Sep-20 08:13 38.413565 -119.006005 78 31192ft 346kts
20-Sep-20 08:14 38.432852 -118.885398 78 31192ft 347kts
20-Sep-20 08:15 38.452036 -118.764522 78 31193ft 347kts
20-Sep-20 08:16 38.471094 -118.643623 78 31194ft 348kts
20-Sep-20 08:17 38.490066 -118.522417 78 31195ft 349kts
20-Sep-20 08:18 38.509010 -118.400521 78 31196ft 349kts
20-Sep-20 08:19 38.527805 -118.278674 79 31190ft 349kts
20-Sep-20 08:20 38.546463 -118.156795 79 31191ft 349kts
20-Sep-20 08:21 38.565832 -118.035392 71 31185ft 349kts
20-Sep-20 08:22 38.611966 -117.923127 60 30378ft 367kts
20-Sep-20 08:23 38.661191 -117.807050 60 29399ft 372kts
20-Sep-20 08:24 38.710497 -117.690301 59 28416ft 373kts
20-Sep-20 08:25 38.759606 -117.573584 59 27436ft 372kts
20-Sep-20 08:26 38.808463 -117.457016 59 26457ft 370kts
20-Sep-20 08:27 38.856087 -117.342977 59 25480ft 361kts
20-Sep-20 08:28 38.903066 -117.230100 59 24467ft 357kts
20-Sep-20 08:29 38.949852 -117.117269 59 23306ft 357kts
20-Sep-20 08:30 38.996536 -117.004278 60 21775ft 356kts
20-Sep-20 08:31 39.042750 -116.891972 60 20232ft 352kts
20-Sep-20 08:32 39.116318 -116.820929 22 18829ft 334kts
20-Sep-20 08:33 39.200313 -116.768074 22 17911ft 321kts
20-Sep-20 08:34 39.283188 -116.716021 22 16610ft 325kts
20-Sep-20 08:35 39.365553 -116.665164 22 15190ft 319kts
20-Sep-20 08:36 39.447467 -116.615166 22 13759ft 317kts
20-Sep-20 08:37 39.526494 -116.567456 22 13088ft 296kts
20-Sep-20 08:38 39.599884 -116.522722 22 13071ft 285kts
20-Sep-20 08:39 39.672475 -116.478271 22 13022ft 283kts
20-Sep-20 08:40 39.743905 -116.434251 22 13023ft 282kts
20-Sep-20 08:41 39.814840 -116.390267 22 13022ft 282kts
20-Sep-20 08:42 39.885533 -116.346334 22 13048ft 281kts
20-Sep-20 08:43 39.956366 -116.302189 22 13048ft 281kts
20-Sep-20 08:44 40.027405 -116.257620 22 13048ft 285kts
20-Sep-20 08:45 40.099189 -116.212537 22 13048ft 286kts
20-Sep-20 08:46 40.121892 -116.120676 96 12818ft 298kts
20-Sep-20 08:47 40.114214 -116.010800 96 11824ft 302kts
20-Sep-20 08:48 40.106455 -115.908288 106 10774ft 253kts
20-Sep-20 08:50 40.049676 -115.891376 191 10757ft 235kts
20-Sep-20 08:51 39.984009 -115.907790 192 10747ft 239kts
20-Sep-20 08:52 39.919114 -115.924222 192 10747ft 237kts
20-Sep-20 08:53 39.854903 -115.940279 192 10747ft 236kts
20-Sep-20 08:54 39.792577 -115.956178 191 9515ft 208kts
20-Sep-20 08:55 39.741073 -115.969145 190 8537ft 180kts
20-Sep-20 08:56 39.699051 -115.979540 190 7704ft 175kts
20-Sep-20 08:57 39.656438 -115.990302 190 6885ft 116kts
20-Sep-20 08:58 39.626346 -115.997875 189 6162ft 90kts
20-Sep-20 08:59 39.606580 -116.003267 287 5957ft 8kts
20-Sep-20 09:00 39.604538 -116.004281 190 5957ft 9kts
20-Sep-20 09:01 39.600414 -116.005478 267 5957ft 4kts
20-Sep-20 09:02 39.599764 -116.005686 271 5957ft 3kts
20-Sep-20 09:03 39.599346 -116.005907 101 5957ft 0kts
20-Sep-20 09:04 39.599346 -116.005907 101 5957ft 0kts
20-Sep-20 09:05 39.599346 -116.005907 101 5957ft 0kts
20-Sep-20 09:06 39.599346 -116.005907 101 5957ft 0kts
20-Sep-20 09:06 39.599346 -116.005907 101 5957ft 0kts

Navigation Log

Ident Type
Flight plan parsing failed, navigation log unavailable